createdAt,value
2022-10-02T00:00:03.048Z,1010.85
2022-10-02T00:01:09.218Z,1010.87
2022-10-02T00:02:02.397Z,1010.91
2022-10-02T00:03:02.481Z,1010.92
2022-10-02T00:04:01.461Z,1010.93
2022-10-02T00:05:01.193Z,1010.95
2022-10-02T00:06:13.076Z,1010.99
2022-10-02T00:07:01.473Z,1010.96
2022-10-02T00:08:00.750Z,1011.03
2022-10-02T00:09:00.354Z,1010.98
2022-10-02T00:09:59.942Z,1011.06
2022-10-02T00:11:14.034Z,1011.03
2022-10-02T00:12:01.272Z,1011.1
2022-10-02T00:13:03.716Z,1011.05
2022-10-02T00:14:01.316Z,1011.07
2022-10-02T00:15:02.040Z,1011.1
2022-10-02T00:16:16.790Z,1011.1
2022-10-02T00:17:01.138Z,1011.08
2022-10-02T00:18:01.138Z,1011.05
2022-10-02T00:19:01.135Z,1011.02
2022-10-02T00:20:01.150Z,1011.09
2022-10-02T00:21:01.060Z,1011.02
2022-10-02T00:22:01.172Z,1011.1
2022-10-02T00:23:01.047Z,1011.06
2022-10-02T00:24:01.080Z,1011.05
2022-10-02T00:25:01.148Z,1011.05
2022-10-02T00:26:01.296Z,1011.13
2022-10-02T00:27:02.199Z,1011.11
2022-10-02T00:28:01.203Z,1011.13
2022-10-02T00:29:01.434Z,1011.12
2022-10-02T00:30:01.142Z,1011.16
2022-10-02T00:31:01.133Z,1011.09
2022-10-02T00:32:01.239Z,1011.15
2022-10-02T00:33:01.087Z,1011.15
2022-10-02T00:34:01.516Z,1011.14
2022-10-02T00:35:01.531Z,1011.1
2022-10-02T00:36:01.225Z,1011.13
2022-10-02T00:37:01.067Z,1011.08
2022-10-02T00:38:01.185Z,1011.16
2022-10-02T00:39:04.462Z,1011.15
2022-10-02T00:40:01.880Z,1011.19
2022-10-02T00:41:01.095Z,1011.19
2022-10-02T00:42:01.389Z,1011.25
2022-10-02T00:43:02.020Z,1011.2
2022-10-02T00:44:01.255Z,1011.24
2022-10-02T00:45:01.199Z,1011.27
2022-10-02T00:46:01.185Z,1011.23
2022-10-02T00:47:02.766Z,1011.25
2022-10-02T00:48:01.132Z,1011.28
2022-10-02T00:49:01.051Z,1011.28
2022-10-02T00:50:01.164Z,1011.28
2022-10-02T00:51:01.166Z,1011.32
2022-10-02T00:52:01.188Z,1011.33
2022-10-02T00:53:03.944Z,1011.43
2022-10-02T00:54:01.083Z,1011.35
2022-10-02T00:55:00.655Z,1011.33
2022-10-02T00:56:00.255Z,1011.36
2022-10-02T00:56:59.962Z,1011.39
2022-10-02T00:57:59.659Z,1011.39
2022-10-02T00:59:01.762Z,1011.34
2022-10-02T01:00:01.510Z,1011.35
2022-10-02T01:01:01.556Z,1011.33
2022-10-02T01:02:01.186Z,1011.37
2022-10-02T01:03:01.050Z,1011.32
2022-10-02T01:04:01.130Z,1011.32
2022-10-02T01:05:01.128Z,1011.35
2022-10-02T01:06:01.700Z,1011.36
2022-10-02T01:07:01.360Z,1011.37
2022-10-02T01:08:01.053Z,1011.38
2022-10-02T01:09:00.681Z,1011.38
2022-10-02T01:10:00.455Z,1011.41
2022-10-02T01:11:00.151Z,1011.42
2022-10-02T01:11:59.857Z,1011.39
2022-10-02T01:12:59.496Z,1011.48
2022-10-02T01:14:01.157Z,1011.46
2022-10-02T01:15:01.902Z,1011.47
2022-10-02T01:16:02.023Z,1011.5
2022-10-02T01:17:01.505Z,1011.52
2022-10-02T01:18:02.755Z,1011.53
2022-10-02T01:19:01.220Z,1011.58
2022-10-02T01:20:01.460Z,1011.59
2022-10-02T01:21:01.860Z,1011.64
2022-10-02T01:22:01.939Z,1011.62
2022-10-02T01:23:04.377Z,1011.64
2022-10-02T01:24:01.173Z,1011.63
2022-10-02T01:25:01.163Z,1011.63
2022-10-02T01:26:01.375Z,1011.69
2022-10-02T01:27:01.071Z,1011.72
2022-10-02T01:28:01.137Z,1011.7
2022-10-02T01:29:01.135Z,1011.73
2022-10-02T01:30:01.483Z,1011.69
2022-10-02T01:31:01.090Z,1011.72
2022-10-02T01:32:01.160Z,1011.75
2022-10-02T01:33:02.144Z,1011.76
2022-10-02T01:34:01.308Z,1011.75
2022-10-02T01:35:01.151Z,1011.74
2022-10-02T01:36:01.137Z,1011.78
2022-10-02T01:37:01.269Z,1011.81
2022-10-02T01:38:01.526Z,1011.73
2022-10-02T01:39:01.144Z,1011.81
2022-10-02T01:40:01.057Z,1011.79
2022-10-02T01:41:01.076Z,1011.78
2022-10-02T01:42:04.448Z,1011.78
2022-10-02T01:43:01.086Z,1011.81
2022-10-02T01:44:01.076Z,1011.82
2022-10-02T01:45:01.100Z,1011.8
2022-10-02T01:46:01.238Z,1011.82
2022-10-02T01:47:07.032Z,1011.84
2022-10-02T01:48:01.102Z,1011.82
2022-10-02T01:49:00.636Z,1011.86
2022-10-02T01:50:00.287Z,1011.87
2022-10-02T01:50:59.972Z,1011.91
2022-10-02T01:52:09.647Z,1011.91
2022-10-02T01:53:01.132Z,1011.93
2022-10-02T01:54:01.529Z,1011.93
2022-10-02T01:55:01.272Z,1011.95
2022-10-02T01:56:01.068Z,1011.94
2022-10-02T01:57:13.389Z,1011.96
2022-10-02T01:58:01.801Z,1012.03
2022-10-02T01:59:02.427Z,1011.96
2022-10-02T02:00:01.769Z,1011.98
2022-10-02T02:01:04.256Z,1011.98
2022-10-02T02:02:15.479Z,1012
2022-10-02T02:03:02.127Z,1011.99
2022-10-02T02:04:01.163Z,1012.04
2022-10-02T02:05:00.801Z,1012.05
2022-10-02T02:06:00.410Z,1012.07
2022-10-02T02:07:00.097Z,1011.99
2022-10-02T02:07:59.829Z,1012
2022-10-02T02:09:02.160Z,1011.98
2022-10-02T02:10:01.139Z,1011.99
2022-10-02T02:11:01.539Z,1011.98
2022-10-02T02:12:01.377Z,1012.03
2022-10-02T02:13:02.089Z,1012.03
2022-10-02T02:14:01.114Z,1012.04
2022-10-02T02:15:01.076Z,1012.04
2022-10-02T02:16:01.177Z,1012.04
2022-10-02T02:17:01.118Z,1012.06
2022-10-02T02:18:01.483Z,1012.03
2022-10-02T02:19:01.933Z,1012.05
2022-10-02T02:20:02.123Z,1012.08
2022-10-02T02:21:01.119Z,1012.06
2022-10-02T02:22:01.042Z,1012.05
2022-10-02T02:23:01.127Z,1012.08
2022-10-02T02:24:01.974Z,1012.08
2022-10-02T02:25:01.154Z,1012.09
2022-10-02T02:26:01.246Z,1012.11
2022-10-02T02:27:01.157Z,1012.12
2022-10-02T02:28:01.145Z,1012.15
2022-10-02T02:29:01.095Z,1012.13
2022-10-02T02:30:01.277Z,1012.18
2022-10-02T02:31:01.301Z,1012.14
2022-10-02T02:32:01.917Z,1012.17
2022-10-02T02:33:01.948Z,1012.17
2022-10-02T02:34:01.307Z,1012.18
2022-10-02T02:35:01.044Z,1012.14
2022-10-02T02:36:01.131Z,1012.16
2022-10-02T02:37:01.116Z,1012.19
2022-10-02T02:38:01.528Z,1012.2
2022-10-02T02:39:01.053Z,1012.16
2022-10-02T02:40:01.038Z,1012.15
2022-10-02T02:41:01.152Z,1012.14
2022-10-02T02:42:01.170Z,1012.15
2022-10-02T02:43:01.054Z,1012.14
2022-10-02T02:44:01.062Z,1012.15
2022-10-02T02:45:01.460Z,1012.19
2022-10-02T02:46:01.096Z,1012.21
2022-10-02T02:47:01.100Z,1012.18
2022-10-02T02:48:01.110Z,1012.24
2022-10-02T02:49:01.193Z,1012.24
2022-10-02T02:50:01.090Z,1012.22
2022-10-02T02:51:01.734Z,1012.22
2022-10-02T02:52:01.208Z,1012.24
2022-10-02T02:53:01.422Z,1012.25
2022-10-02T02:54:01.042Z,1012.25
2022-10-02T02:55:01.052Z,1012.23
2022-10-02T02:56:01.143Z,1012.22
2022-10-02T02:57:01.140Z,1012.2
2022-10-02T02:58:01.540Z,1012.25
2022-10-02T02:59:04.240Z,1012.21
2022-10-02T03:00:01.873Z,1012.22
2022-10-02T03:01:01.968Z,1012.22
2022-10-02T03:02:01.838Z,1012.24
2022-10-02T03:03:01.417Z,1012.23
2022-10-02T03:04:01.050Z,1012.24
2022-10-02T03:05:01.086Z,1012.23
2022-10-02T03:06:01.106Z,1012.21
2022-10-02T03:07:01.102Z,1012.25
2022-10-02T03:08:05.186Z,1012.24
2022-10-02T03:09:01.171Z,1012.25
2022-10-02T03:10:01.534Z,1012.21
2022-10-02T03:11:01.175Z,1012.28
2022-10-02T03:12:01.147Z,1012.29
2022-10-02T03:13:08.161Z,1012.31
2022-10-02T03:14:01.375Z,1012.3
2022-10-02T03:15:01.060Z,1012.29
2022-10-02T03:16:01.567Z,1012.3
2022-10-02T03:17:01.753Z,1012.32
2022-10-02T03:18:10.977Z,1012.29
2022-10-02T03:19:01.549Z,1012.29
2022-10-02T03:20:01.252Z,1012.33
2022-10-02T03:21:01.427Z,1012.29
2022-10-02T03:22:01.413Z,1012.3
2022-10-02T03:23:13.897Z,1012.33
2022-10-02T03:24:02.061Z,1012.3
2022-10-02T03:25:01.122Z,1012.33
2022-10-02T03:26:01.144Z,1012.31
2022-10-02T03:27:01.172Z,1012.35
2022-10-02T03:28:27.170Z,1012.31
2022-10-02T03:29:00.858Z,1012.31
2022-10-02T03:29:59.799Z,1012.28
2022-10-02T03:31:02.992Z,1012.27
2022-10-02T03:32:01.940Z,1012.32
2022-10-02T03:33:01.075Z,1012.29
2022-10-02T03:34:01.148Z,1012.31
2022-10-02T03:35:01.465Z,1012.33
2022-10-02T03:36:01.101Z,1012.31
2022-10-02T03:37:01.098Z,1012.3
2022-10-02T03:38:01.400Z,1012.3
2022-10-02T03:39:23.772Z,1012.32
2022-10-02T03:40:02.558Z,1012.33
2022-10-02T03:41:01.114Z,1012.31
2022-10-02T03:42:01.162Z,1012.33
2022-10-02T03:43:01.493Z,1012.31
2022-10-02T03:44:01.408Z,1012.32
2022-10-02T03:45:02.064Z,1012.38
2022-10-02T03:46:01.349Z,1012.35
2022-10-02T03:47:02.743Z,1012.34
2022-10-02T03:48:02.140Z,1012.3
2022-10-02T03:49:01.805Z,1012.32
2022-10-02T03:50:01.078Z,1012.4
2022-10-02T03:51:01.104Z,1012.39
2022-10-02T03:52:01.089Z,1012.35
2022-10-02T03:53:01.059Z,1012.29
2022-10-02T03:54:01.231Z,1012.26
2022-10-02T03:55:03.715Z,1012.25
2022-10-02T03:56:01.128Z,1012.26
2022-10-02T03:57:01.132Z,1012.24
2022-10-02T03:58:01.826Z,1012.31
2022-10-02T03:59:01.803Z,1012.28
2022-10-02T04:00:03.279Z,1012.27
2022-10-02T04:01:02.596Z,1012.26
2022-10-02T04:02:01.564Z,1012.28
2022-10-02T04:03:01.542Z,1012.29
2022-10-02T04:04:01.770Z,1012.29
2022-10-02T04:05:01.142Z,1012.25
2022-10-02T04:06:01.053Z,1012.28
2022-10-02T04:07:01.090Z,1012.28
2022-10-02T04:08:01.083Z,1012.32
2022-10-02T04:09:01.165Z,1012.27
2022-10-02T04:10:01.477Z,1012.24
2022-10-02T04:11:01.220Z,1012.26
2022-10-02T04:12:01.123Z,1012.26
2022-10-02T04:13:00.810Z,1012.32
2022-10-02T04:14:00.514Z,1012.33
2022-10-02T04:15:00.118Z,1012.32
2022-10-02T04:15:59.857Z,1012.39
2022-10-02T04:16:59.556Z,1012.35
2022-10-02T04:18:01.136Z,1012.37
2022-10-02T04:19:01.782Z,1012.41
2022-10-02T04:20:01.350Z,1012.4
2022-10-02T04:21:02.228Z,1012.39
2022-10-02T04:22:01.105Z,1012.43
2022-10-02T04:23:01.094Z,1012.41
2022-10-02T04:24:01.049Z,1012.4
2022-10-02T04:25:01.153Z,1012.43
2022-10-02T04:26:01.270Z,1012.39
2022-10-02T04:27:01.279Z,1012.39
2022-10-02T04:28:01.578Z,1012.37
2022-10-02T04:29:01.863Z,1012.35
2022-10-02T04:30:01.816Z,1012.41
2022-10-02T04:31:01.544Z,1012.4
2022-10-02T04:32:01.156Z,1012.37
2022-10-02T04:33:01.061Z,1012.41
2022-10-02T04:34:01.050Z,1012.44
2022-10-02T04:35:01.219Z,1012.43
2022-10-02T04:36:01.454Z,1012.47
2022-10-02T04:37:01.542Z,1012.48
2022-10-02T04:38:02.035Z,1012.53
2022-10-02T04:39:01.706Z,1012.47
2022-10-02T04:40:01.096Z,1012.52
2022-10-02T04:41:00.729Z,1012.49
2022-10-02T04:42:00.385Z,1012.43
2022-10-02T04:43:00.099Z,1012.42
2022-10-02T04:44:00.676Z,1012.49
2022-10-02T04:45:00.259Z,1012.56
2022-10-02T04:46:00.064Z,1012.52
2022-10-02T04:46:59.979Z,1012.55
2022-10-02T04:48:00.149Z,1012.55
2022-10-02T04:49:01.247Z,1012.66
2022-10-02T04:50:00.823Z,1012.71
2022-10-02T04:51:00.783Z,1012.72
2022-10-02T04:52:00.627Z,1012.78
2022-10-02T04:53:00.261Z,1012.81
2022-10-02T04:54:03.725Z,1012.85
2022-10-02T04:55:01.105Z,1012.84
2022-10-02T04:56:01.127Z,1012.87
2022-10-02T04:57:00.786Z,1012.81
2022-10-02T04:58:00.502Z,1012.83
2022-10-02T04:59:05.350Z,1012.73
2022-10-02T05:00:01.293Z,1012.77
2022-10-02T05:01:01.436Z,1012.78
2022-10-02T05:02:01.542Z,1012.75
2022-10-02T05:03:01.133Z,1012.78
2022-10-02T05:04:09.947Z,1012.75
2022-10-02T05:05:01.811Z,1012.72
2022-10-02T05:06:01.115Z,1012.8
2022-10-02T05:07:01.071Z,1012.78
2022-10-02T05:08:01.098Z,1012.77
2022-10-02T05:09:11.937Z,1012.77
2022-10-02T05:10:01.094Z,1012.74
2022-10-02T05:11:01.094Z,1012.69
2022-10-02T05:12:01.096Z,1012.69
2022-10-02T05:13:01.080Z,1012.68
2022-10-02T05:14:15.726Z,1012.73
2022-10-02T05:15:00.855Z,1012.68
2022-10-02T05:16:00.804Z,1012.62
2022-10-02T05:17:01.062Z,1012.63
2022-10-02T05:18:01.075Z,1012.67
2022-10-02T05:19:01.070Z,1012.68
2022-10-02T05:20:01.160Z,1012.67
2022-10-02T05:21:01.978Z,1012.72
2022-10-02T05:22:02.606Z,1012.66
2022-10-02T05:23:01.366Z,1012.64
2022-10-02T05:24:02.219Z,1012.65
2022-10-02T05:25:01.083Z,1012.64
2022-10-02T05:26:01.111Z,1012.61
2022-10-02T05:27:01.839Z,1012.58
2022-10-02T05:28:01.386Z,1012.6
2022-10-02T05:29:01.115Z,1012.63
2022-10-02T05:30:00.907Z,1012.64
2022-10-02T05:31:01.187Z,1012.64
2022-10-02T05:32:01.135Z,1012.74
2022-10-02T05:33:01.131Z,1012.72
2022-10-02T05:34:01.546Z,1012.75
2022-10-02T05:35:01.066Z,1012.76
2022-10-02T05:36:01.166Z,1012.83
2022-10-02T05:37:01.876Z,1012.76
2022-10-02T05:38:01.334Z,1012.74
2022-10-02T05:39:01.065Z,1012.8
2022-10-02T05:40:01.512Z,1012.76
2022-10-02T05:41:01.418Z,1012.81
2022-10-02T05:42:01.115Z,1012.76
2022-10-02T05:43:01.099Z,1012.74
2022-10-02T05:44:01.118Z,1012.75
2022-10-02T05:45:01.171Z,1012.75
2022-10-02T05:46:02.092Z,1012.74
2022-10-02T05:47:01.165Z,1012.76
2022-10-02T05:48:01.147Z,1012.7
2022-10-02T05:49:01.126Z,1012.69
2022-10-02T05:50:00.830Z,1012.69
2022-10-02T05:51:01.051Z,1012.72
2022-10-02T05:52:01.063Z,1012.69
2022-10-02T05:53:00.733Z,1012.73
2022-10-02T05:54:00.295Z,1012.72
2022-10-02T05:55:00.371Z,1012.83
2022-10-02T05:56:00.386Z,1012.84
2022-10-02T05:57:00.390Z,1012.79
2022-10-02T05:58:03.291Z,1012.78
2022-10-02T05:59:02.112Z,1012.78
2022-10-02T06:00:01.977Z,1012.82
2022-10-02T06:01:02.006Z,1012.8
2022-10-02T06:02:01.197Z,1012.77
2022-10-02T06:03:01.115Z,1012.89
2022-10-02T06:04:01.134Z,1012.89
2022-10-02T06:05:01.561Z,1012.92
2022-10-02T06:06:01.252Z,1012.9
2022-10-02T06:07:01.332Z,1012.9
2022-10-02T06:08:02.071Z,1012.91
2022-10-02T06:09:02.126Z,1012.95
2022-10-02T06:10:01.078Z,1012.94
2022-10-02T06:11:01.071Z,1012.97
2022-10-02T06:12:01.083Z,1012.99
2022-10-02T06:13:01.084Z,1012.92
2022-10-02T06:14:01.092Z,1013
2022-10-02T06:15:01.116Z,1012.99
2022-10-02T06:16:00.819Z,1012.96
2022-10-02T06:17:01.102Z,1012.96
2022-10-02T06:18:01.118Z,1012.95
2022-10-02T06:19:01.116Z,1012.95
2022-10-02T06:20:03.588Z,1012.97
2022-10-02T06:21:01.139Z,1012.93
2022-10-02T06:22:01.158Z,1012.92
2022-10-02T06:23:01.172Z,1012.89
2022-10-02T06:24:01.380Z,1012.85
2022-10-02T06:25:00.761Z,1012.93
2022-10-02T06:26:00.364Z,1012.87
2022-10-02T06:26:59.943Z,1012.84
2022-10-02T06:27:59.618Z,1012.91
2022-10-02T06:29:01.924Z,1012.9
2022-10-02T06:30:01.852Z,1012.92
2022-10-02T06:31:01.056Z,1012.88
2022-10-02T06:32:01.182Z,1012.92
2022-10-02T06:33:01.117Z,1012.87
2022-10-02T06:34:01.120Z,1012.89
2022-10-02T06:35:01.150Z,1012.87
2022-10-02T06:36:01.847Z,1012.91
2022-10-02T06:37:01.890Z,1012.96
2022-10-02T06:38:01.165Z,1012.91
2022-10-02T06:39:01.235Z,1012.89
2022-10-02T06:40:03.081Z,1012.9
2022-10-02T06:41:02.503Z,1012.89
2022-10-02T06:42:01.062Z,1012.95
2022-10-02T06:43:01.075Z,1012.91
2022-10-02T06:44:01.118Z,1012.94
2022-10-02T06:45:06.069Z,1012.96
2022-10-02T06:46:02.184Z,1012.99
2022-10-02T06:47:01.611Z,1013
2022-10-02T06:48:02.152Z,1012.95
2022-10-02T06:49:01.889Z,1013
2022-10-02T06:50:08.855Z,1012.94
2022-10-02T06:51:01.119Z,1012.92
2022-10-02T06:52:01.061Z,1012.93
2022-10-02T06:53:01.511Z,1012.96
2022-10-02T06:54:01.285Z,1012.95
2022-10-02T06:55:11.804Z,1012.93
2022-10-02T06:56:00.944Z,1012.9
2022-10-02T06:57:01.064Z,1012.91
2022-10-02T06:58:01.313Z,1012.93
2022-10-02T06:59:08.369Z,1012.87
2022-10-02T07:00:14.491Z,1012.96
2022-10-02T07:01:01.134Z,1012.87
2022-10-02T07:02:01.141Z,1012.92
2022-10-02T07:03:03.536Z,1012.87
2022-10-02T07:04:01.376Z,1012.86
2022-10-02T07:05:16.876Z,1012.8
2022-10-02T07:06:00.407Z,1012.78
2022-10-02T07:07:00.034Z,1012.77
2022-10-02T07:07:59.613Z,1012.84
2022-10-02T07:09:01.884Z,1012.82
2022-10-02T07:10:02.276Z,1012.87
2022-10-02T07:11:01.144Z,1012.91
2022-10-02T07:12:01.060Z,1012.91
2022-10-02T07:13:01.104Z,1012.9
2022-10-02T07:14:01.078Z,1012.91
2022-10-02T07:15:01.083Z,1012.93
2022-10-02T07:16:01.564Z,1012.93
2022-10-02T07:17:01.174Z,1012.91
2022-10-02T07:18:01.098Z,1012.96
2022-10-02T07:19:01.116Z,1012.99
2022-10-02T07:20:01.252Z,1012.99
2022-10-02T07:21:01.118Z,1012.99
2022-10-02T07:22:01.485Z,1013.05
2022-10-02T07:23:01.246Z,1013.04
2022-10-02T07:24:02.753Z,1013.04
2022-10-02T07:25:01.137Z,1013.04
2022-10-02T07:26:01.915Z,1013.07
2022-10-02T07:27:01.242Z,1013
2022-10-02T07:28:01.433Z,1013.05
2022-10-02T07:29:01.249Z,1013.01
2022-10-02T07:30:01.076Z,1013.02
2022-10-02T07:31:01.198Z,1013
2022-10-02T07:32:01.139Z,1012.99
2022-10-02T07:33:01.117Z,1012.95
2022-10-02T07:34:01.782Z,1012.96
2022-10-02T07:35:01.476Z,1012.97
2022-10-02T07:36:01.112Z,1012.96
2022-10-02T07:37:01.224Z,1012.98
2022-10-02T07:38:01.488Z,1012.93
2022-10-02T07:39:01.584Z,1013.05
2022-10-02T07:40:02.572Z,1013.06
2022-10-02T07:41:01.488Z,1013.03
2022-10-02T07:42:01.375Z,1013.06
2022-10-02T07:43:01.163Z,1012.98
2022-10-02T07:44:01.065Z,1013.05
2022-10-02T07:45:01.078Z,1013.03
2022-10-02T07:46:02.296Z,1013.01
2022-10-02T07:47:02.279Z,1013.04
2022-10-02T07:48:01.109Z,1013.01
2022-10-02T07:49:01.781Z,1013.04
2022-10-02T07:50:00.399Z,1013.02
2022-10-02T07:51:00.076Z,1012.99
2022-10-02T07:51:59.909Z,1013.02
2022-10-02T07:52:59.914Z,1013.01
2022-10-02T07:53:59.469Z,1012.98
2022-10-02T07:55:02.677Z,1012.96
2022-10-02T07:56:01.577Z,1012.98
2022-10-02T07:57:01.261Z,1012.96
2022-10-02T07:58:01.489Z,1013.02
2022-10-02T07:59:01.069Z,1012.98
2022-10-02T08:00:01.073Z,1012.96
2022-10-02T08:01:01.069Z,1012.96
2022-10-02T08:02:01.097Z,1013.01
2022-10-02T08:03:01.138Z,1013.06
2022-10-02T08:04:01.086Z,1013.03
2022-10-02T08:05:01.042Z,1013.05
2022-10-02T08:06:01.122Z,1013.05
2022-10-02T08:07:01.431Z,1013.03
2022-10-02T08:08:01.118Z,1013.02
2022-10-02T08:09:01.125Z,1013.04
2022-10-02T08:10:01.128Z,1013.01
2022-10-02T08:11:01.204Z,1013.03
2022-10-02T08:12:01.182Z,1013.04
2022-10-02T08:13:01.140Z,1013.03
2022-10-02T08:14:01.180Z,1013.09
2022-10-02T08:15:01.053Z,1013.04
2022-10-02T08:16:01.590Z,1013.01
2022-10-02T08:17:01.230Z,1013.04
2022-10-02T08:18:16.763Z,1012.98
2022-10-02T08:19:01.995Z,1013.01
2022-10-02T08:20:01.690Z,1013.02
2022-10-02T08:21:01.180Z,1013.02
2022-10-02T08:22:01.117Z,1013
2022-10-02T08:23:01.450Z,1013.02
2022-10-02T08:24:01.509Z,1012.96
2022-10-02T08:25:02.035Z,1012.95
2022-10-02T08:26:02.854Z,1012.9
2022-10-02T08:27:01.212Z,1012.95
2022-10-02T08:28:00.916Z,1012.98
2022-10-02T08:29:01.245Z,1012.99
2022-10-02T08:30:04.342Z,1013.04
2022-10-02T08:31:06.105Z,1012.99
2022-10-02T08:32:01.832Z,1013.04
2022-10-02T08:33:01.049Z,1013.01
2022-10-02T08:34:01.075Z,1013.05
2022-10-02T08:35:01.101Z,1013.17
2022-10-02T08:36:10.385Z,1013.1
2022-10-02T08:37:01.878Z,1013.16
2022-10-02T08:38:02.123Z,1013.08
2022-10-02T08:39:01.043Z,1013.1
2022-10-02T08:40:01.119Z,1013.04
2022-10-02T08:41:14.293Z,1013.01
2022-10-02T08:42:01.132Z,1013.06
2022-10-02T08:43:01.181Z,1013.05
2022-10-02T08:44:01.570Z,1013.07
2022-10-02T08:45:01.167Z,1013.08
2022-10-02T08:46:01.114Z,1013.02
2022-10-02T08:47:01.068Z,1013.04
2022-10-02T08:48:01.979Z,1013
2022-10-02T08:49:01.187Z,1013.05
2022-10-02T08:50:01.107Z,1013.08
2022-10-02T08:51:01.058Z,1013.09
2022-10-02T08:52:01.451Z,1013.13
2022-10-02T08:53:01.448Z,1013.14
2022-10-02T08:54:01.456Z,1013.13
2022-10-02T08:55:01.561Z,1013.14
2022-10-02T08:56:02.144Z,1013.11
2022-10-02T08:57:01.729Z,1013.06
2022-10-02T08:58:01.329Z,1013.07
2022-10-02T08:59:01.139Z,1013.14
2022-10-02T09:00:01.505Z,1013.16
2022-10-02T09:01:02.009Z,1013.14
2022-10-02T09:02:01.331Z,1013.09
2022-10-02T09:03:01.134Z,1013.08
2022-10-02T09:04:00.856Z,1013.02
2022-10-02T09:05:01.382Z,1013.09
2022-10-02T09:06:02.105Z,1013.03
2022-10-02T09:07:01.102Z,1013.02
2022-10-02T09:08:01.096Z,1013.03
2022-10-02T09:09:01.064Z,1013.03
2022-10-02T09:09:59.872Z,1013.03
2022-10-02T09:11:01.513Z,1013.03
2022-10-02T09:12:01.161Z,1013.03
2022-10-02T09:13:01.132Z,1013.04
2022-10-02T09:14:01.530Z,1012.97
2022-10-02T09:15:01.152Z,1012.96
2022-10-02T09:16:01.197Z,1012.97
2022-10-02T09:17:01.176Z,1012.98
2022-10-02T09:18:00.493Z,1012.96
2022-10-02T09:19:00.430Z,1012.98
2022-10-02T09:20:00.036Z,1013
2022-10-02T09:20:59.742Z,1012.99
2022-10-02T09:22:02.239Z,1013.11
2022-10-02T09:23:01.763Z,1013.09
2022-10-02T09:24:01.187Z,1013.1
2022-10-02T09:25:01.115Z,1013.07
2022-10-02T09:26:01.118Z,1013.08
2022-10-02T09:27:01.142Z,1013.1
2022-10-02T09:28:01.552Z,1013.1
2022-10-02T09:29:01.187Z,1013.12
2022-10-02T09:30:01.173Z,1013.12
2022-10-02T09:31:01.337Z,1013.15
2022-10-02T09:32:01.337Z,1013.11
2022-10-02T09:33:01.737Z,1013.08
2022-10-02T09:34:01.381Z,1013.09
2022-10-02T09:35:01.060Z,1013.12
2022-10-02T09:36:01.087Z,1013.06
2022-10-02T09:37:01.071Z,1013.04
2022-10-02T09:38:01.094Z,1013.07
2022-10-02T09:39:01.442Z,1013.06
2022-10-02T09:40:01.135Z,1012.99
2022-10-02T09:41:01.321Z,1013.05
2022-10-02T09:42:01.131Z,1013.03
2022-10-02T09:43:01.111Z,1012.97
2022-10-02T09:44:01.116Z,1013.03
2022-10-02T09:45:01.966Z,1012.99
2022-10-02T09:46:01.254Z,1012.97
2022-10-02T09:47:01.516Z,1012.96
2022-10-02T09:48:01.963Z,1012.93
2022-10-02T09:49:01.086Z,1012.96
2022-10-02T09:50:01.059Z,1012.93
2022-10-02T09:51:01.080Z,1012.89
2022-10-02T09:52:01.085Z,1012.93
2022-10-02T09:53:01.084Z,1012.94
2022-10-02T09:54:01.082Z,1012.94
2022-10-02T09:55:01.087Z,1012.94
2022-10-02T09:56:01.061Z,1012.9
2022-10-02T09:57:00.810Z,1012.81
2022-10-02T09:58:00.484Z,1012.88
2022-10-02T09:59:00.092Z,1012.85
2022-10-02T09:59:59.681Z,1012.81
2022-10-02T10:01:01.615Z,1012.83
2022-10-02T10:02:01.831Z,1012.83
2022-10-02T10:03:01.067Z,1012.77
2022-10-02T10:04:01.384Z,1012.76
2022-10-02T10:05:06.196Z,1012.79
2022-10-02T10:06:02.081Z,1012.81
2022-10-02T10:07:02.583Z,1012.75
2022-10-02T10:08:01.364Z,1012.81
2022-10-02T10:09:01.044Z,1012.84
2022-10-02T10:10:00.676Z,1012.88
2022-10-02T10:11:00.265Z,1012.87
2022-10-02T10:12:04.125Z,1012.84
2022-10-02T10:13:02.046Z,1012.86
2022-10-02T10:14:01.104Z,1012.84
2022-10-02T10:15:01.041Z,1012.84
2022-10-02T10:16:01.436Z,1012.8
2022-10-02T10:17:06.863Z,1012.8
2022-10-02T10:18:01.040Z,1012.78
2022-10-02T10:19:01.048Z,1012.81
2022-10-02T10:20:01.149Z,1012.8
2022-10-02T10:21:04.231Z,1012.8
2022-10-02T10:22:09.029Z,1012.85
2022-10-02T10:23:01.871Z,1012.81
2022-10-02T10:24:01.103Z,1012.82
2022-10-02T10:25:01.133Z,1012.8
2022-10-02T10:26:01.095Z,1012.83
2022-10-02T10:27:11.165Z,1012.83
2022-10-02T10:28:01.151Z,1012.81
2022-10-02T10:29:01.104Z,1012.76
2022-10-02T10:29:59.873Z,1012.8
2022-10-02T10:30:59.534Z,1012.84
2022-10-02T10:32:14.082Z,1012.85
2022-10-02T10:33:01.445Z,1012.78
2022-10-02T10:34:01.144Z,1012.8
2022-10-02T10:35:01.157Z,1012.77
2022-10-02T10:36:01.364Z,1012.71
2022-10-02T10:37:15.995Z,1012.7
2022-10-02T10:38:01.070Z,1012.77
2022-10-02T10:39:01.082Z,1012.76
2022-10-02T10:40:01.082Z,1012.72
2022-10-02T10:41:01.086Z,1012.71
2022-10-02T10:42:01.063Z,1012.74
2022-10-02T10:43:07.894Z,1012.7
2022-10-02T10:44:01.161Z,1012.76
2022-10-02T10:45:01.432Z,1012.7
2022-10-02T10:46:01.402Z,1012.7
2022-10-02T10:47:02.038Z,1012.67
2022-10-02T10:48:01.130Z,1012.72
2022-10-02T10:49:00.715Z,1012.66
2022-10-02T10:50:00.312Z,1012.66
2022-10-02T10:51:00.315Z,1012.74
2022-10-02T10:51:59.937Z,1012.7
2022-10-02T10:52:59.511Z,1012.71
2022-10-02T10:54:02.118Z,1012.71
2022-10-02T10:55:01.362Z,1012.63
2022-10-02T10:56:02.100Z,1012.6
2022-10-02T10:57:00.669Z,1012.59
2022-10-02T10:58:00.273Z,1012.54
2022-10-02T10:59:00.255Z,1012.59
2022-10-02T11:00:00.244Z,1012.5
2022-10-02T11:01:00.174Z,1012.55
2022-10-02T11:01:59.859Z,1012.54
2022-10-02T11:03:02.187Z,1012.49
2022-10-02T11:04:01.142Z,1012.46
2022-10-02T11:05:01.139Z,1012.45
2022-10-02T11:06:01.146Z,1012.56
2022-10-02T11:07:01.193Z,1012.45
2022-10-02T11:08:01.146Z,1012.46
2022-10-02T11:09:01.559Z,1012.44
2022-10-02T11:10:01.072Z,1012.49
2022-10-02T11:11:01.067Z,1012.47
2022-10-02T11:12:01.185Z,1012.4
2022-10-02T11:13:01.108Z,1012.43
2022-10-02T11:14:01.095Z,1012.4
2022-10-02T11:15:01.197Z,1012.38
2022-10-02T11:16:01.179Z,1012.34
2022-10-02T11:17:00.904Z,1012.31
2022-10-02T11:18:01.514Z,1012.32
2022-10-02T11:19:01.132Z,1012.26
2022-10-02T11:20:01.145Z,1012.27
2022-10-02T11:21:01.140Z,1012.27
2022-10-02T11:22:01.154Z,1012.28
2022-10-02T11:23:01.148Z,1012.15
2022-10-02T11:24:01.049Z,1012.2
2022-10-02T11:25:02.301Z,1012.22
2022-10-02T11:26:02.596Z,1012.22
2022-10-02T11:27:02.198Z,1012.21
2022-10-02T11:28:01.216Z,1012.2
2022-10-02T11:29:01.110Z,1012.2
2022-10-02T11:29:59.648Z,1012.17
2022-10-02T11:31:01.401Z,1012.15
2022-10-02T11:32:01.145Z,1012.16
2022-10-02T11:33:00.929Z,1012.18
2022-10-02T11:34:00.598Z,1012.14
2022-10-02T11:35:00.308Z,1012.15
2022-10-02T11:36:00.303Z,1012.1
2022-10-02T11:37:00.337Z,1012.08
2022-10-02T11:38:03.842Z,1012.08
2022-10-02T11:39:02.068Z,1012.08
2022-10-02T11:40:02.579Z,1012.06
2022-10-02T11:41:01.078Z,1012.05
2022-10-02T11:42:01.069Z,1011.98
2022-10-02T11:43:00.773Z,1011.95
2022-10-02T11:44:00.383Z,1011.95
2022-10-02T11:44:59.945Z,1011.94
2022-10-02T11:45:59.659Z,1011.99
2022-10-02T11:47:01.319Z,1011.98
2022-10-02T11:48:02.132Z,1012.02
2022-10-02T11:49:02.119Z,1012.04
2022-10-02T11:50:01.240Z,1012.05
2022-10-02T11:51:01.135Z,1012.02
2022-10-02T11:52:01.130Z,1012.05
2022-10-02T11:53:01.145Z,1012.08
2022-10-02T11:54:01.283Z,1012.13
2022-10-02T11:55:01.061Z,1012.2
2022-10-02T11:56:01.080Z,1012.15
2022-10-02T11:57:00.851Z,1012.27
2022-10-02T11:58:01.818Z,1012.16
2022-10-02T11:59:01.094Z,1012.15
2022-10-02T12:00:01.088Z,1012.2
2022-10-02T12:01:01.099Z,1012.22
2022-10-02T12:02:01.203Z,1012.29
2022-10-02T12:03:04.174Z,1012.23
2022-10-02T12:04:02.035Z,1012.22
2022-10-02T12:05:01.122Z,1012.3
2022-10-02T12:06:01.148Z,1012.28
2022-10-02T12:07:01.657Z,1012.23
2022-10-02T12:08:07.779Z,1012.19